Time;durP1;ratioP1;P1;durP2;ratioP2;P2;SDS_P1;SDS_P2;PMS_P1;PMS_P2;Temp;Humidity;BMP_temperature;BMP_pressure;BME280_temperature;BME280_humidity;BME280_pressure;Samples;Min_cycle;Max_cycle;Signal;HPM_P1;HPM_P2
2024/01/20 00:01:33;;;;;;;20.10;6.28;;;;;;;;;;5130443;27;20599;-62
2024/01/20 00:04:00;;;;;;;11.50;5.75;;;;;;;;;;5130207;27;20054;-62
2024/01/20 00:06:27;;;;;;;14.65;6.13;;;;;;;;;;5117266;27;20488;-62
2024/01/20 00:08:55;;;;;;;15.57;5.40;;;;;;;;;;5113363;28;20055;-62
2024/01/20 00:11:22;;;;;;;13.85;6.75;;;;;;;;;;5109637;28;20066;-61
2024/01/20 00:13:48;;;;;;;15.88;7.15;;;;;;;;;;5109947;28;20047;-65
2024/01/20 00:16:15;;;;;;;13.82;6.55;;;;;;;;;;5109520;28;20062;-61
2024/01/20 00:18:42;;;;;;;16.05;6.38;;;;;;;;;;5108861;28;20044;-63
2024/01/20 00:21:09;;;;;;;11.52;5.82;;;;;;;;;;5109227;28;20534;-64
2024/01/20 00:23:37;;;;;;;21.08;7.72;;;;;;;;;;5109329;28;20047;-64
2024/01/20 00:26:03;;;;;;;19.45;7.05;;;;;;;;;;5109019;28;20043;-62
2024/01/20 00:28:30;;;;;;;13.98;6.75;;;;;;;;;;5108566;28;20703;-60
2024/01/20 00:30:57;;;;;;;19.73;7.30;;;;;;;;;;5107605;28;20048;-64
2024/01/20 00:33:25;;;;;;;18.63;7.07;;;;;;;;;;5109212;28;20487;-60
2024/01/20 00:35:52;;;;;;;13.60;6.10;;;;;;;;;;5108892;28;20055;-68
2024/01/20 00:38:18;;;;;;;14.85;6.65;;;;;;;;;;5108562;28;20039;-64
2024/01/20 00:40:45;;;;;;;16.38;5.95;;;;;;;;;;5108970;28;20052;-65
2024/01/20 00:43:11;;;;;;;17.35;8.45;;;;;;;;;;5109085;28;20062;-64
2024/01/20 00:45:38;;;;;;;15.23;7.25;;;;;;;;;;5108956;28;20048;-64
2024/01/20 00:48:05;;;;;;;20.00;7.35;;;;;;;;;;5108355;28;20044;-60
2024/01/20 00:50:31;;;;;;;16.85;6.13;;;;;;;;;;5111572;27;20088;-65
2024/01/20 00:52:58;;;;;;;14.55;7.03;;;;;;;;;;5128861;27;20505;-61
2024/01/20 00:55:24;;;;;;;19.08;7.68;;;;;;;;;;5129358;27;20051;-62
2024/01/20 00:57:51;;;;;;;15.50;6.95;;;;;;;;;;5110596;27;20459;-62
2024/01/20 01:00:17;;;;;;;14.30;7.13;;;;;;;;;;5128962;27;20059;-64
2024/01/20 01:02:44;;;;;;;17.27;7.65;;;;;;;;;;5129037;27;20048;-65
2024/01/20 01:05:10;;;;;;;21.63;8.27;;;;;;;;;;5125460;27;20051;-63
2024/01/20 01:07:37;;;;;;;21.75;9.43;;;;;;;;;;5108036;28;20487;-62
2024/01/20 01:10:04;;;;;;;17.80;6.88;;;;;;;;;;5108432;28;20131;-63
2024/01/20 01:12:30;;;;;;;16.27;7.68;;;;;;;;;;5090804;28;20051;-64
2024/01/20 01:14:56;;;;;;;23.38;8.13;;;;;;;;;;5108460;28;20040;-61
2024/01/20 01:17:23;;;;;;;18.35;7.80;;;;;;;;;;5106598;28;20047;-63
2024/01/20 01:19:49;;;;;;;17.75;8.05;;;;;;;;;;5108279;28;20512;-62
2024/01/20 01:22:16;;;;;;;20.55;7.97;;;;;;;;;;5108019;28;20131;-63
2024/01/20 01:24:42;;;;;;;17.67;7.95;;;;;;;;;;5108021;28;20063;-63
2024/01/20 01:27:08;;;;;;;15.05;6.97;;;;;;;;;;5107573;28;20055;-62
2024/01/20 01:29:35;;;;;;;21.58;7.95;;;;;;;;;;5107960;28;20620;-61
2024/01/20 01:32:02;;;;;;;18.33;7.80;;;;;;;;;;5108175;28;20051;-63
2024/01/20 01:34:31;;;;;;;22.15;6.78;;;;;;;;;;5107459;28;20365;-64
2024/01/20 01:36:58;;;;;;;27.13;9.63;;;;;;;;;;5106470;28;20059;-63
2024/01/20 01:39:24;;;;;;;18.92;7.40;;;;;;;;;;5107617;28;20128;-63
2024/01/20 01:41:50;;;;;;;27.83;9.95;;;;;;;;;;5107933;28;20531;-66
2024/01/20 01:44:17;;;;;;;22.95;9.68;;;;;;;;;;5107701;28;20040;-63
2024/01/20 01:46:43;;;;;;;16.58;7.82;;;;;;;;;;5107531;28;20103;-61
2024/01/20 01:49:10;;;;;;;21.30;8.63;;;;;;;;;;5107080;28;20055;-61
2024/01/20 01:51:37;;;;;;;16.10;7.93;;;;;;;;;;5119766;28;20480;-64
2024/01/20 01:54:04;;;;;;;16.23;7.50;;;;;;;;;;5128052;28;20050;-62
2024/01/20 01:56:31;;;;;;;22.30;9.27;;;;;;;;;;5128175;28;20417;-62
2024/01/20 01:58:58;;;;;;;18.77;8.00;;;;;;;;;;5127524;28;20104;-63
2024/01/20 02:01:24;;;;;;;17.60;7.88;;;;;;;;;;5127912;28;20464;-62
2024/01/20 02:03:51;;;;;;;23.08;10.30;;;;;;;;;;5131020;27;20051;-65
2024/01/20 02:06:18;;;;;;;19.73;9.07;;;;;;;;;;5118973;27;20043;-62
2024/01/20 02:08:44;;;;;;;21.40;9.02;;;;;;;;;;5111291;28;20055;-61
2024/01/20 02:11:11;;;;;;;17.48;8.88;;;;;;;;;;5111394;28;20101;-63
2024/01/20 02:13:38;;;;;;;16.17;9.15;;;;;;;;;;5113821;28;20052;-66
2024/01/20 02:16:04;;;;;;;21.60;9.75;;;;;;;;;;5114207;28;20112;-62
2024/01/20 02:18:31;;;;;;;15.57;8.38;;;;;;;;;;5112810;28;20055;-60
2024/01/20 02:20:58;;;;;;;23.63;10.00;;;;;;;;;;5111729;28;20139;-63
2024/01/20 02:23:24;;;;;;;24.83;9.95;;;;;;;;;;5111699;28;20051;-62
2024/01/20 02:25:50;;;;;;;19.08;8.07;;;;;;;;;;5111558;28;20138;-64
2024/01/20 02:28:17;;;;;;;24.85;9.57;;;;;;;;;;5111238;28;20116;-61
2024/01/20 02:30:45;;;;;;;20.23;9.27;;;;;;;;;;5112784;28;20044;-61
2024/01/20 02:33:11;;;;;;;19.20;9.13;;;;;;;;;;5113095;28;20048;-63
2024/01/20 02:35:38;;;;;;;23.60;10.23;;;;;;;;;;5113094;28;20040;-64
2024/01/20 02:38:04;;;;;;;17.60;8.38;;;;;;;;;;5111757;28;20120;-62
2024/01/20 02:40:31;;;;;;;26.27;8.57;;;;;;;;;;5114839;28;20078;-65
2024/01/20 02:42:57;;;;;;;18.40;8.40;;;;;;;;;;5095171;28;20051;-63
2024/01/20 02:45:23;;;;;;;18.60;8.68;;;;;;;;;;5111283;28;20075;-65
2024/01/20 02:47:51;;;;;;;20.50;9.20;;;;;;;;;;5110709;28;20047;-64
2024/01/20 02:50:17;;;;;;;21.95;8.00;;;;;;;;;;5112278;27;20407;-63
2024/01/20 02:52:47;;;;;;;18.85;8.38;;;;;;;;;;5131394;27;20514;-63
2024/01/20 02:55:13;;;;;;;22.08;9.55;;;;;;;;;;5131549;27;20137;-62
2024/01/20 02:57:40;;;;;;;23.90;9.50;;;;;;;;;;5131010;27;20051;-61
2024/01/20 03:00:07;;;;;;;23.70;9.82;;;;;;;;;;5131237;27;20478;-65
2024/01/20 03:02:34;;;;;;;21.58;8.45;;;;;;;;;;5131314;27;20051;-62
2024/01/20 03:05:01;;;;;;;20.15;10.05;;;;;;;;;;5132491;27;20039;-71
2024/01/20 03:07:27;;;;;;;24.50;8.60;;;;;;;;;;5134344;27;20047;-64
2024/01/20 03:09:54;;;;;;;17.38;8.32;;;;;;;;;;5131307;27;20082;-61
2024/01/20 03:12:21;;;;;;;18.15;8.88;;;;;;;;;;5131456;27;20061;-63
2024/01/20 03:14:47;;;;;;;21.25;8.95;;;;;;;;;;5130089;27;20053;-62
2024/01/20 03:17:14;;;;;;;17.52;8.35;;;;;;;;;;5130923;27;20051;-63
2024/01/20 03:19:40;;;;;;;19.17;9.27;;;;;;;;;;5130764;27;20105;-61
2024/01/20 03:22:07;;;;;;;15.10;8.43;;;;;;;;;;5131088;27;20643;-61
2024/01/20 03:24:33;;;;;;;16.38;8.00;;;;;;;;;;5130703;27;20097;-63
2024/01/20 03:27:00;;;;;;;21.55;8.60;;;;;;;;;;5112405;27;20039;-62
2024/01/20 03:29:26;;;;;;;22.60;8.75;;;;;;;;;;5130304;27;20064;-61
2024/01/20 03:31:52;;;;;;;17.60;8.52;;;;;;;;;;5133604;27;20059;-72
2024/01/20 03:34:20;;;;;;;21.55;9.52;;;;;;;;;;5131602;27;20051;-62
2024/01/20 03:36:47;;;;;;;22.08;9.10;;;;;;;;;;5112747;27;20560;-62
2024/01/20 03:39:13;;;;;;;19.77;9.23;;;;;;;;;;5130390;27;20040;-64
2024/01/20 03:41:39;;;;;;;16.75;7.88;;;;;;;;;;5130724;27;20154;-64
2024/01/20 03:44:06;;;;;;;19.75;8.60;;;;;;;;;;5130321;27;20623;-62
2024/01/20 03:46:32;;;;;;;20.00;8.05;;;;;;;;;;5130114;27;20103;-62
2024/01/20 03:48:59;;;;;;;22.42;8.35;;;;;;;;;;5111760;27;20051;-61
2024/01/20 03:51:26;;;;;;;15.18;8.13;;;;;;;;;;5129822;27;20099;-64
2024/01/20 03:53:54;;;;;;;18.80;8.82;;;;;;;;;;5129683;27;20047;-65
2024/01/20 03:56:21;;;;;;;17.63;8.18;;;;;;;;;;5129375;27;20043;-65
2024/01/20 03:58:48;;;;;;;16.27;7.70;;;;;;;;;;5129814;27;20051;-63
2024/01/20 04:01:14;;;;;;;24.50;8.75;;;;;;;;;;5130082;27;20055;-63
2024/01/20 04:03:40;;;;;;;20.73;8.57;;;;;;;;;;5130465;27;20401;-62
2024/01/20 04:06:07;;;;;;;20.77;8.52;;;;;;;;;;5118248;27;20047;-62
2024/01/20 04:08:34;;;;;;;16.52;8.07;;;;;;;;;;5108875;28;20058;-65
2024/01/20 04:11:00;;;;;;;18.08;7.85;;;;;;;;;;5109368;28;20051;-64
2024/01/20 04:13:27;;;;;;;19.15;8.32;;;;;;;;;;5109201;28;20087;-62
2024/01/20 04:15:55;;;;;;;17.80;9.80;;;;;;;;;;5109302;28;20085;-61
2024/01/20 04:18:21;;;;;;;23.83;8.90;;;;;;;;;;5108815;28;20050;-61
2024/01/20 04:20:48;;;;;;;20.38;8.65;;;;;;;;;;5109080;28;20047;-64
2024/01/20 04:23:17;;;;;;;17.63;8.65;;;;;;;;;;5107533;28;20360;-63
2024/01/20 04:25:44;;;;;;;20.13;9.73;;;;;;;;;;5108757;28;20047;-61
2024/01/20 04:28:10;;;;;;;19.38;9.77;;;;;;;;;;5090129;28;20135;-65
2024/01/20 04:30:36;;;;;;;23.02;9.85;;;;;;;;;;5108732;28;20404;-65
2024/01/20 04:33:03;;;;;;;15.82;8.43;;;;;;;;;;5108514;28;20129;-61
2024/01/20 04:35:29;;;;;;;21.00;9.13;;;;;;;;;;5108783;28;20502;-61
2024/01/20 04:37:56;;;;;;;17.85;8.45;;;;;;;;;;5108433;28;20093;-61
2024/01/20 04:40:22;;;;;;;21.40;9.20;;;;;;;;;;5108579;28;20062;-63
2024/01/20 04:42:52;;;;;;;14.32;7.88;;;;;;;;;;5108579;28;20108;-63
2024/01/20 04:45:19;;;;;;;21.60;9.57;;;;;;;;;;5108528;28;20051;-62
2024/01/20 04:47:45;;;;;;;21.90;8.88;;;;;;;;;;5108484;28;20491;-62
2024/01/20 04:50:12;;;;;;;22.95;10.15;;;;;;;;;;5109419;27;20047;-63
2024/01/20 04:52:38;;;;;;;28.65;9.43;;;;;;;;;;5128915;27;20046;-63
2024/01/20 04:55:05;;;;;;;21.75;10.10;;;;;;;;;;5129114;27;20188;-65
2024/01/20 04:57:31;;;;;;;19.30;9.68;;;;;;;;;;5128232;27;20051;-63
2024/01/20 04:59:58;;;;;;;21.65;10.23;;;;;;;;;;5128883;27;20076;-62
2024/01/20 05:02:24;;;;;;;18.77;9.48;;;;;;;;;;5128772;27;20047;-62
2024/01/20 05:04:51;;;;;;;20.25;9.10;;;;;;;;;;5128182;27;20070;-63
2024/01/20 05:07:18;;;;;;;19.35;10.75;;;;;;;;;;5107648;28;20055;-61
2024/01/20 05:09:44;;;;;;;21.05;9.68;;;;;;;;;;5108240;28;20055;-62
2024/01/20 05:12:11;;;;;;;24.73;10.77;;;;;;;;;;5108234;28;20526;-63
2024/01/20 05:14:37;;;;;;;24.40;9.45;;;;;;;;;;5108015;28;20070;-62
2024/01/20 05:17:03;;;;;;;17.80;10.23;;;;;;;;;;5107964;28;20052;-65
2024/01/20 05:19:30;;;;;;;22.00;11.02;;;;;;;;;;5107741;28;20081;-62
2024/01/20 05:21:56;;;;;;;27.02;10.82;;;;;;;;;;5108053;28;20225;-63
2024/01/20 05:24:23;;;;;;;19.08;10.18;;;;;;;;;;5108123;28;20101;-61
2024/01/20 05:26:49;;;;;;;21.65;9.75;;;;;;;;;;5090093;28;20526;-61
2024/01/20 05:29:16;;;;;;;16.05;10.20;;;;;;;;;;5107609;28;20388;-64
2024/01/20 05:31:42;;;;;;;27.02;10.00;;;;;;;;;;5107923;28;20564;-63
2024/01/20 05:34:10;;;;;;;20.10;10.45;;;;;;;;;;5106575;28;20047;-62
2024/01/20 05:36:37;;;;;;;20.13;9.68;;;;;;;;;;5107764;28;20097;-63
2024/01/20 05:39:04;;;;;;;24.35;11.73;;;;;;;;;;5109306;28;20526;-69
2024/01/20 05:41:30;;;;;;;22.67;10.52;;;;;;;;;;5110145;28;20078;-63
2024/01/20 05:43:57;;;;;;;23.20;10.75;;;;;;;;;;5107985;28;20138;-61
2024/01/20 05:46:24;;;;;;;16.75;9.73;;;;;;;;;;5108062;28;20048;-62
2024/01/20 05:48:50;;;;;;;27.50;11.02;;;;;;;;;;5107255;28;20439;-64
2024/01/20 05:51:17;;;;;;;25.40;10.32;;;;;;;;;;5098996;28;20140;-64
2024/01/20 05:53:43;;;;;;;24.20;10.68;;;;;;;;;;5128102;27;20379;-62
2024/01/20 05:56:10;;;;;;;23.63;11.77;;;;;;;;;;5109828;28;20047;-63
2024/01/20 05:58:36;;;;;;;21.35;11.38;;;;;;;;;;5127673;28;20111;-63
2024/01/20 06:01:03;;;;;;;21.83;10.65;;;;;;;;;;5127929;28;20112;-65
2024/01/20 06:03:29;;;;;;;23.15;11.45;;;;;;;;;;5127983;28;20127;-64
2024/01/20 06:05:56;;;;;;;25.00;10.55;;;;;;;;;;5120419;28;20046;-60
2024/01/20 06:08:22;;;;;;;22.48;11.30;;;;;;;;;;5108703;28;20048;-64
2024/01/20 06:10:50;;;;;;;20.17;9.85;;;;;;;;;;5107483;28;20043;-64
2024/01/20 06:13:16;;;;;;;25.98;10.63;;;;;;;;;;5107475;28;20048;-61
2024/01/20 06:15:43;;;;;;;26.25;12.05;;;;;;;;;;5107582;28;20058;-62
2024/01/20 06:18:09;;;;;;;26.00;12.38;;;;;;;;;;5107458;28;20097;-66
2024/01/20 06:20:36;;;;;;;22.92;10.10;;;;;;;;;;5107530;28;20321;-62
2024/01/20 06:23:02;;;;;;;27.40;11.85;;;;;;;;;;5108600;28;20494;-65
2024/01/20 06:25:29;;;;;;;18.13;9.60;;;;;;;;;;5109860;28;20097;-63
2024/01/20 06:27:55;;;;;;;21.20;11.00;;;;;;;;;;5107996;28;20043;-60
2024/01/20 06:30:21;;;;;;;20.33;10.55;;;;;;;;;;5109368;28;20048;-65
2024/01/20 06:32:51;;;;;;;17.77;9.88;;;;;;;;;;5093836;28;20054;-65
2024/01/20 06:35:17;;;;;;;21.38;10.27;;;;;;;;;;5107451;28;20055;-62
2024/01/20 06:37:43;;;;;;;24.52;10.50;;;;;;;;;;5107309;28;20052;-65
2024/01/20 06:40:10;;;;;;;24.50;10.95;;;;;;;;;;5107498;28;20055;-66
2024/01/20 06:42:36;;;;;;;26.83;11.85;;;;;;;;;;5107260;28;20162;-63
2024/01/20 06:45:03;;;;;;;28.60;11.63;;;;;;;;;;5107370;28;20063;-60
2024/01/20 06:47:30;;;;;;;22.27;10.55;;;;;;;;;;5106738;28;20086;-65
2024/01/20 06:49:57;;;;;;;27.10;10.55;;;;;;;;;;5110111;28;20544;-62
2024/01/20 06:52:23;;;;;;;29.27;12.38;;;;;;;;;;5129917;27;20075;-60
2024/01/20 06:54:50;;;;;;;23.13;10.90;;;;;;;;;;5131125;27;20100;-63
2024/01/20 06:57:16;;;;;;;22.33;11.95;;;;;;;;;;5133666;27;20115;-66
2024/01/20 06:59:43;;;;;;;24.50;11.30;;;;;;;;;;5132901;27;20054;-64
2024/01/20 07:02:10;;;;;;;20.30;10.70;;;;;;;;;;5131479;27;20613;-62
2024/01/20 07:04:37;;;;;;;23.25;10.35;;;;;;;;;;5131286;27;20436;-63
2024/01/20 07:07:03;;;;;;;24.48;10.88;;;;;;;;;;5112016;27;20047;-68
2024/01/20 07:09:30;;;;;;;25.38;11.60;;;;;;;;;;5110225;28;20071;-61
2024/01/20 07:11:57;;;;;;;20.77;11.15;;;;;;;;;;5093062;28;20568;-65
2024/01/20 07:14:24;;;;;;;25.77;11.55;;;;;;;;;;5110661;28;20077;-61
2024/01/20 07:16:51;;;;;;;21.33;10.93;;;;;;;;;;5110737;28;20112;-62
2024/01/20 07:19:17;;;;;;;24.40;11.52;;;;;;;;;;5110142;28;20637;-64
2024/01/20 07:21:44;;;;;;;19.60;10.45;;;;;;;;;;5092175;28;20055;-64
2024/01/20 07:24:10;;;;;;;23.60;11.52;;;;;;;;;;5092041;28;20126;-61
2024/01/20 07:26:37;;;;;;;22.33;11.38;;;;;;;;;;5091960;28;20055;-64
2024/01/20 07:29:03;;;;;;;24.25;13.20;;;;;;;;;;5110006;28;20052;-63
2024/01/20 07:31:29;;;;;;;28.23;11.00;;;;;;;;;;5110213;28;20138;-62
2024/01/20 07:33:56;;;;;;;22.83;12.00;;;;;;;;;;5109976;28;20055;-61
2024/01/20 07:36:22;;;;;;;25.98;11.68;;;;;;;;;;5110168;28;20052;-61
2024/01/20 07:38:49;;;;;;;20.08;10.52;;;;;;;;;;5109860;28;20150;-64
2024/01/20 07:41:15;;;;;;;24.00;12.02;;;;;;;;;;5110217;28;20083;-64
2024/01/20 07:43:42;;;;;;;20.98;10.20;;;;;;;;;;5109931;28;20043;-62
2024/01/20 07:46:08;;;;;;;21.48;11.07;;;;;;;;;;5109818;28;20135;-65
2024/01/20 07:48:35;;;;;;;24.83;11.68;;;;;;;;;;5109539;28;20128;-61
2024/01/20 07:51:01;;;;;;;20.38;10.60;;;;;;;;;;5117669;27;20055;-68
2024/01/20 07:53:28;;;;;;;30.92;11.23;;;;;;;;;;5130286;27;20601;-64
2024/01/20 07:55:54;;;;;;;20.58;11.23;;;;;;;;;;5130638;27;20111;-63
2024/01/20 07:58:21;;;;;;;20.08;10.70;;;;;;;;;;5130261;27;20653;-62
2024/01/20 08:00:47;;;;;;;19.50;10.75;;;;;;;;;;5111695;27;20474;-64
2024/01/20 08:03:14;;;;;;;21.38;11.02;;;;;;;;;;5130416;27;20449;-63
2024/01/20 08:05:45;;;;;;;24.45;12.55;;;;;;;;;;5121916;27;20513;-63
2024/01/20 08:08:12;;;;;;;21.85;11.15;;;;;;;;;;5109194;28;20047;-66
2024/01/20 08:10:38;;;;;;;26.48;10.93;;;;;;;;;;5109630;28;20499;-62
2024/01/20 08:13:04;;;;;;;23.52;11.27;;;;;;;;;;5109806;28;20044;-63
2024/01/20 08:15:31;;;;;;;20.08;10.45;;;;;;;;;;5109382;28;20075;-63
2024/01/20 08:17:57;;;;;;;21.38;11.18;;;;;;;;;;5109503;28;20040;-67
2024/01/20 08:20:24;;;;;;;18.85;10.30;;;;;;;;;;5109150;28;20043;-65
2024/01/20 08:22:50;;;;;;;17.55;9.60;;;;;;;;;;5109316;28;20048;-63
2024/01/20 08:25:17;;;;;;;19.33;10.95;;;;;;;;;;5109491;28;20452;-62
2024/01/20 08:27:43;;;;;;;20.10;9.38;;;;;;;;;;5109424;28;20061;-64
2024/01/20 08:30:10;;;;;;;24.48;10.48;;;;;;;;;;5109572;28;20154;-62
2024/01/20 08:32:37;;;;;;;20.02;9.95;;;;;;;;;;5109189;28;20055;-63
2024/01/20 08:35:04;;;;;;;18.98;10.02;;;;;;;;;;5109334;28;20058;-61
2024/01/20 08:37:30;;;;;;;21.85;9.90;;;;;;;;;;5109308;28;20059;-64
2024/01/20 08:39:56;;;;;;;16.67;10.43;;;;;;;;;;5109820;28;20052;-63
2024/01/20 08:42:23;;;;;;;20.27;9.75;;;;;;;;;;5109437;28;20059;-64
2024/01/20 08:44:49;;;;;;;21.05;9.40;;;;;;;;;;5109716;28;20051;-63
2024/01/20 08:47:16;;;;;;;19.38;8.68;;;;;;;;;;5109293;28;20109;-62
2024/01/20 08:49:42;;;;;;;19.35;9.50;;;;;;;;;;5109606;28;20077;-63
2024/01/20 08:52:10;;;;;;;23.40;9.80;;;;;;;;;;5126408;27;20082;-65
2024/01/20 08:54:38;;;;;;;16.85;9.13;;;;;;;;;;5129846;27;20047;-63
2024/01/20 08:57:04;;;;;;;18.77;8.88;;;;;;;;;;5129488;27;20134;-60
2024/01/20 08:59:31;;;;;;;18.30;9.23;;;;;;;;;;5129715;27;20055;-63
2024/01/20 09:01:57;;;;;;;16.25;9.30;;;;;;;;;;5129796;27;20138;-68
2024/01/20 09:04:24;;;;;;;22.40;10.07;;;;;;;;;;5131080;27;20691;-62
2024/01/20 09:06:50;;;;;;;16.40;9.40;;;;;;;;;;5096782;28;20464;-62
2024/01/20 09:09:18;;;;;;;20.08;9.40;;;;;;;;;;5108134;28;20545;-62
2024/01/20 09:11:44;;;;;;;20.80;9.15;;;;;;;;;;5108066;28;20612;-63
2024/01/20 09:14:11;;;;;;;23.70;10.52;;;;;;;;;;5107615;28;20047;-61
2024/01/20 09:16:37;;;;;;;19.80;8.60;;;;;;;;;;5108181;28;20062;-63
2024/01/20 09:19:04;;;;;;;24.83;9.20;;;;;;;;;;5107649;28;20047;-62
2024/01/20 09:21:30;;;;;;;21.65;9.20;;;;;;;;;;5107827;28;20059;-62
2024/01/20 09:23:57;;;;;;;19.17;10.15;;;;;;;;;;5108423;28;20523;-63
2024/01/20 09:26:24;;;;;;;16.40;9.65;;;;;;;;;;5107992;28;20050;-64
2024/01/20 09:28:50;;;;;;;17.63;9.27;;;;;;;;;;5107604;28;20083;-64
2024/01/20 09:31:17;;;;;;;20.80;9.18;;;;;;;;;;5111134;28;20047;-66
2024/01/20 09:33:45;;;;;;;17.15;8.45;;;;;;;;;;5109850;28;20066;-62
2024/01/20 09:39:39;;;;;;;20.65;7.68;;;;;;;;;;5108257;28;20462;-63
2024/01/20 09:42:06;;;;;;;22.02;8.52;;;;;;;;;;5107591;28;20043;-66
2024/01/20 09:44:33;;;;;;;18.30;7.78;;;;;;;;;;5107374;28;20047;-60
2024/01/20 09:46:59;;;;;;;27.67;9.38;;;;;;;;;;5107877;28;20550;-62
2024/01/20 09:49:26;;;;;;;21.73;9.85;;;;;;;;;;5107152;28;20744;-61
2024/01/20 09:51:57;;;;;;;19.15;9.02;;;;;;;;;;5122407;27;20051;-61
2024/01/20 09:54:24;;;;;;;17.40;8.95;;;;;;;;;;5127802;27;20051;-64
2024/01/20 09:56:51;;;;;;;31.15;8.73;;;;;;;;;;5111740;28;20403;-63
2024/01/20 09:59:18;;;;;;;21.02;9.93;;;;;;;;;;5129369;28;20058;-64
2024/01/20 10:01:45;;;;;;;17.83;8.93;;;;;;;;;;5128301;28;20051;-61
2024/01/20 10:04:15;;;;;;;17.08;8.75;;;;;;;;;;5127946;28;20043;-62
2024/01/20 10:06:41;;;;;;;18.67;8.98;;;;;;;;;;5111598;28;20146;-63
2024/01/20 10:09:08;;;;;;;18.55;8.50;;;;;;;;;;5106861;28;20109;-62
2024/01/20 10:11:34;;;;;;;20.05;9.48;;;;;;;;;;5107137;28;20070;-65
2024/01/20 10:14:01;;;;;;;20.77;8.98;;;;;;;;;;5107322;28;20147;-62
2024/01/20 10:16:35;;;;;;;20.42;9.82;;;;;;;;;;5109482;28;20100;-62
2024/01/20 10:19:02;;;;;;;22.60;11.02;;;;;;;;;;5091185;28;20104;-63
2024/01/20 10:21:28;;;;;;;15.30;9.43;;;;;;;;;;5110630;28;20677;-64
2024/01/20 10:23:55;;;;;;;20.27;9.02;;;;;;;;;;5112410;28;20055;-64
2024/01/20 10:26:23;;;;;;;18.40;8.80;;;;;;;;;;5111383;28;20054;-62
2024/01/20 10:28:49;;;;;;;18.60;9.60;;;;;;;;;;5111389;28;20055;-62
2024/01/20 10:31:16;;;;;;;23.08;10.25;;;;;;;;;;5111112;28;20044;-62
2024/01/20 10:33:42;;;;;;;22.90;9.88;;;;;;;;;;5111128;28;20515;-61
2024/01/20 10:36:10;;;;;;;16.40;9.35;;;;;;;;;;5109934;28;20044;-61
2024/01/20 10:38:38;;;;;;;20.60;9.35;;;;;;;;;;5110661;28;20055;-62
2024/01/20 10:41:07;;;;;;;26.15;9.95;;;;;;;;;;5111130;28;20423;-63
2024/01/20 10:43:39;;;;;;;35.55;11.35;;;;;;;;;;5110848;28;20058;-63
2024/01/20 10:46:17;;;;;;;20.42;9.75;;;;;;;;;;5111181;28;20059;-64
2024/01/20 10:48:47;;;;;;;25.20;10.55;;;;;;;;;;5110577;28;20048;-65
2024/01/20 10:51:14;;;;;;;30.00;10.93;;;;;;;;;;5120271;27;20075;-62
2024/01/20 10:53:41;;;;;;;23.65;10.38;;;;;;;;;;5131200;27;20640;-62
2024/01/20 10:56:08;;;;;;;16.67;9.20;;;;;;;;;;5131605;27;20043;-62
2024/01/20 10:58:55;;;;;;;30.35;10.43;;;;;;;;;;5131083;27;20084;-64
2024/01/20 11:01:22;;;;;;;16.58;10.07;;;;;;;;;;5131105;27;20058;-61
2024/01/20 11:03:48;;;;;;;24.50;10.43;;;;;;;;;;5131419;27;20047;-61
2024/01/20 11:06:19;;;;;;;24.08;8.98;;;;;;;;;;5118375;27;20517;-65
2024/01/20 11:08:49;;;;;;;29.38;9.95;;;;;;;;;;5110261;28;20113;-63
2024/01/20 11:11:17;;;;;;;17.83;9.82;;;;;;;;;;5092587;28;20044;-64
2024/01/20 11:13:44;;;;;;;17.52;10.18;;;;;;;;;;5110378;28;20487;-62
2024/01/20 11:16:17;;;;;;;21.52;9.52;;;;;;;;;;5110475;28;20043;-62
2024/01/20 11:18:45;;;;;;;21.85;9.80;;;;;;;;;;5110113;28;20051;-64
2024/01/20 11:21:19;;;;;;;20.55;10.75;;;;;;;;;;5110241;28;20063;-62
2024/01/20 11:24:01;;;;;;;22.98;11.68;;;;;;;;;;5110110;28;20040;-66
2024/01/20 11:26:34;;;;;;;24.45;10.50;;;;;;;;;;5110556;28;20096;-64
2024/01/20 11:29:02;;;;;;;14.90;8.57;;;;;;;;;;5109905;28;20523;-66
2024/01/20 11:31:31;;;;;;;23.05;8.23;;;;;;;;;;5110118;28;20404;-64
2024/01/20 11:34:02;;;;;;;20.67;8.90;;;;;;;;;;5109695;28;20047;-66
2024/01/20 11:36:29;;;;;;;22.00;9.68;;;;;;;;;;5109268;28;20054;-65
2024/01/20 11:38:57;;;;;;;16.60;8.35;;;;;;;;;;5109901;28;20051;-64
2024/01/20 11:41:24;;;;;;;25.95;10.77;;;;;;;;;;5109779;28;20047;-64
2024/01/20 11:43:50;;;;;;;23.52;9.90;;;;;;;;;;5109833;28;20096;-64
2024/01/20 11:46:17;;;;;;;17.50;9.48;;;;;;;;;;5108234;28;20274;-64
2024/01/20 11:48:44;;;;;;;20.60;9.35;;;;;;;;;;5109464;28;20061;-63
2024/01/20 11:51:11;;;;;;;21.13;9.55;;;;;;;;;;5118756;27;20550;-64
2024/01/20 11:53:38;;;;;;;20.83;8.38;;;;;;;;;;5130368;27;20134;-63
2024/01/20 11:56:05;;;;;;;28.42;9.85;;;;;;;;;;5130281;27;20161;-66
2024/01/20 11:58:31;;;;;;;20.67;10.00;;;;;;;;;;5129343;27;20116;-63
2024/01/20 12:00:58;;;;;;;21.65;8.82;;;;;;;;;;5130022;27;20566;-67
2024/01/20 12:03:26;;;;;;;35.25;9.38;;;;;;;;;;5130137;27;20474;-64
2024/01/20 12:05:53;;;;;;;21.23;7.70;;;;;;;;;;5120461;27;20102;-63
2024/01/20 12:08:19;;;;;;;16.13;7.82;;;;;;;;;;5107430;28;20051;-65
2024/01/20 12:10:46;;;;;;;16.67;7.72;;;;;;;;;;5109487;28;20074;-63
2024/01/20 12:13:13;;;;;;;16.15;8.18;;;;;;;;;;5109470;28;20101;-63
2024/01/20 12:15:43;;;;;;;16.02;8.93;;;;;;;;;;5109030;28;20043;-64
2024/01/20 12:18:09;;;;;;;20.25;8.38;;;;;;;;;;5108883;28;20047;-63
2024/01/20 12:20:36;;;;;;;14.43;8.05;;;;;;;;;;5109112;28;20047;-64
2024/01/20 12:23:03;;;;;;;15.93;8.05;;;;;;;;;;5108971;28;20055;-63
2024/01/20 12:25:30;;;;;;;19.73;8.13;;;;;;;;;;5109213;28;20459;-65
2024/01/20 12:27:59;;;;;;;21.35;7.25;;;;;;;;;;5108555;28;20047;-66
2024/01/20 12:30:29;;;;;;;15.38;6.93;;;;;;;;;;5110437;28;20138;-66
2024/01/20 12:32:56;;;;;;;16.08;8.05;;;;;;;;;;5110520;28;20056;-63
2024/01/20 12:35:22;;;;;;;18.17;8.93;;;;;;;;;;5091140;28;20062;-63
2024/01/20 12:37:49;;;;;;;19.88;7.30;;;;;;;;;;5108748;28;20044;-64
2024/01/20 12:40:15;;;;;;;16.25;7.88;;;;;;;;;;5107758;28;20051;-64
2024/01/20 12:42:42;;;;;;;17.40;7.20;;;;;;;;;;5109066;28;20053;-65
2024/01/20 12:45:10;;;;;;;14.88;8.25;;;;;;;;;;5108963;28;20112;-63
2024/01/20 12:47:37;;;;;;;17.48;7.15;;;;;;;;;;5108077;28;20449;-65
2024/01/20 12:50:04;;;;;;;19.77;7.35;;;;;;;;;;5108582;28;20047;-65
2024/01/20 12:52:30;;;;;;;25.15;7.80;;;;;;;;;;5128501;27;20403;-65
2024/01/20 12:54:57;;;;;;;15.60;7.40;;;;;;;;;;5129224;27;20051;-65
2024/01/20 12:57:24;;;;;;;18.40;7.35;;;;;;;;;;5133018;27;20235;-66
2024/01/20 12:59:51;;;;;;;15.02;6.55;;;;;;;;;;5130840;27;20101;-65
2024/01/20 13:02:17;;;;;;;22.30;7.05;;;;;;;;;;5129317;27;20047;-65
2024/01/20 13:04:44;;;;;;;15.40;6.80;;;;;;;;;;5128805;27;20039;-66
2024/01/20 13:07:10;;;;;;;22.10;8.75;;;;;;;;;;5108103;27;20777;-66
2024/01/20 13:09:40;;;;;;;18.88;7.68;;;;;;;;;;5108421;28;20056;-65
2024/01/20 13:12:07;;;;;;;17.38;7.05;;;;;;;;;;5108442;28;20047;-66
2024/01/20 13:14:34;;;;;;;18.85;8.00;;;;;;;;;;5107877;28;20086;-66
2024/01/20 13:17:02;;;;;;;15.32;6.30;;;;;;;;;;5108236;28;20051;-65
2024/01/20 13:19:28;;;;;;;21.92;7.60;;;;;;;;;;5107573;28;20067;-66
2024/01/20 13:21:56;;;;;;;18.05;7.47;;;;;;;;;;5109133;28;20085;-66
2024/01/20 13:24:22;;;;;;;12.98;7.15;;;;;;;;;;5111394;28;20483;-65
2024/01/20 13:26:48;;;;;;;24.00;8.00;;;;;;;;;;5108469;28;20468;-65
2024/01/20 13:29:15;;;;;;;18.92;7.60;;;;;;;;;;5107900;28;20072;-64
2024/01/20 13:31:41;;;;;;;12.27;6.85;;;;;;;;;;5108130;28;20046;-66
2024/01/20 13:34:08;;;;;;;18.95;7.78;;;;;;;;;;5107977;28;20039;-65
2024/01/20 13:36:34;;;;;;;21.35;7.30;;;;;;;;;;5108004;28;20778;-65
2024/01/20 13:39:04;;;;;;;20.85;7.93;;;;;;;;;;5107570;28;20134;-65
2024/01/20 13:41:32;;;;;;;19.08;6.78;;;;;;;;;;5107749;28;20134;-65
2024/01/20 13:43:58;;;;;;;20.73;7.38;;;;;;;;;;5107762;28;20538;-65
2024/01/20 13:46:25;;;;;;;20.27;8.60;;;;;;;;;;5107484;28;20135;-64
2024/01/20 13:48:51;;;;;;;14.48;7.60;;;;;;;;;;5109133;28;20080;-64
2024/01/20 13:51:18;;;;;;;17.75;7.97;;;;;;;;;;5119143;27;20506;-67
2024/01/20 13:53:44;;;;;;;15.60;7.35;;;;;;;;;;5128041;27;20051;-65
2024/01/20 13:56:11;;;;;;;23.10;8.65;;;;;;;;;;5128257;27;20054;-65
2024/01/20 13:58:38;;;;;;;19.33;7.85;;;;;;;;;;5127357;27;20050;-65
2024/01/20 14:01:05;;;;;;;17.42;7.68;;;;;;;;;;5128109;28;20134;-65
2024/01/20 14:03:32;;;;;;;15.95;7.07;;;;;;;;;;5109990;28;20694;-65
2024/01/20 14:05:58;;;;;;;17.30;7.65;;;;;;;;;;5117997;28;20439;-65
2024/01/20 14:08:25;;;;;;;20.85;8.20;;;;;;;;;;5107475;28;20578;-69
2024/01/20 14:10:51;;;;;;;15.90;7.03;;;;;;;;;;5108633;28;20048;-68
2024/01/20 14:13:18;;;;;;;16.98;7.95;;;;;;;;;;5108186;28;20100;-67
2024/01/20 14:15:44;;;;;;;14.95;7.88;;;;;;;;;;5107820;28;20047;-66
2024/01/20 14:18:11;;;;;;;18.48;8.63;;;;;;;;;;5107275;28;20083;-65
2024/01/20 14:20:38;;;;;;;17.25;7.32;;;;;;;;;;5107679;28;20058;-65
2024/01/20 14:23:04;;;;;;;19.20;7.22;;;;;;;;;;5107610;28;20044;-65
2024/01/20 14:25:31;;;;;;;13.50;6.72;;;;;;;;;;5107467;28;20051;-65
2024/01/20 14:28:00;;;;;;;19.00;7.53;;;;;;;;;;5106953;28;20549;-64